Time,TemperatureF,DewpointF,PressureIn,WindDirection,WindDirectionDegrees,WindSpeedMPH,WindSpeedGustMPH,Humidity,HourlyPrecipIn,Conditions,Clouds,dailyrainin,SoftwareType,DateUTC
2015-09-04 00:00:00,80.2,76.4,29.00,West,270,0.0,0.0,88,0.00,,,0.00,WeatherDisplay:WD_co,2015-09-03 21:00:00,
2015-09-04 00:05:00,80.1,76.2,29.00,West,270,0.0,0.0,88,0.00,,,0.00,WeatherDisplay:WD_co,2015-09-03 21:05:00,
2015-09-04 00:10:00,80.1,76.2,29.00,West,270,0.0,0.0,88,0.00,,,0.00,WeatherDisplay:WD_co,2015-09-03 21:10:00,
2015-09-04 00:15:00,80.1,76.2,29.00,West,270,0.0,0.0,88,0.00,,,0.00,WeatherDisplay:WD_co,2015-09-03 21:15:00,
2015-09-04 00:20:00,80.1,76.2,29.00,SW,214,0.0,0.0,88,0.00,,,0.00,WeatherDisplay:WD_co,2015-09-03 21:20:00,
2015-09-04 00:25:00,80.1,75.8,29.00,South,180,0.0,0.0,87,0.00,,,0.00,WeatherDisplay:WD_co,2015-09-03 21:25:00,
2015-09-04 00:30:00,80.1,75.8,29.00,South,180,0.0,0.0,87,0.00,,,0.00,WeatherDisplay:WD_co,2015-09-03 21:30:00,
2015-09-04 00:35:00,79.9,75.3,29.00,South,180,0.0,0.0,86,0.00,,,0.00,WeatherDisplay:WD_co,2015-09-03 21:35:00,
2015-09-04 00:40:00,79.9,75.3,29.00,South,180,0.0,0.0,86,0.00,,,0.00,WeatherDisplay:WD_co,2015-09-03 21:40:00,
2015-09-04 00:45:00,79.9,75.3,29.00,South,180,0.0,0.0,86,0.00,,,0.00,WeatherDisplay:WD_co,2015-09-03 21:45:00,
2015-09-04 00:50:00,79.7,75.1,29.00,South,180,0.0,0.0,86,0.00,,,0.00,WeatherDisplay:WD_co,2015-09-03 21:50:00,
2015-09-04 00:55:00,79.5,75.0,29.00,South,180,0.0,0.0,86,0.00,,,0.00,WeatherDisplay:WD_co,2015-09-03 21:55:00,
2015-09-04 01:00:00,79.3,74.4,29.00,South,180,0.0,0.0,85,0.00,,,0.00,WeatherDisplay:WD_co,2015-09-03 22:00:00,
2015-09-04 01:05:00,79.3,74.4,29.01,SSW,207,0.0,0.0,85,0.00,,,0.00,WeatherDisplay:WD_co,2015-09-03 22:05:00,
2015-09-04 01:10:00,79.7,74.8,29.00,SW,225,0.0,0.0,85,0.00,,,0.00,WeatherDisplay:WD_co,2015-09-03 22:10:00,
2015-09-04 01:15:00,79.5,74.3,29.01,SW,225,0.0,0.0,84,0.00,,,0.00,WeatherDisplay:WD_co,2015-09-03 22:15:00,
2015-09-04 01:20:00,79.7,74.4,29.00,SW,225,0.0,0.0,84,0.00,,,0.00,WeatherDisplay:WD_co,2015-09-03 22:20:00,
2015-09-04 01:25:00,79.5,74.3,29.00,SW,225,0.0,0.0,84,0.00,,,0.00,WeatherDisplay:WD_co,2015-09-03 22:25:00,
2015-09-04 01:30:00,79.3,74.4,29.00,SW,225,0.0,0.0,85,0.00,,,0.00,WeatherDisplay:WD_co,2015-09-03 22:30:00,
2015-09-04 01:35:00,79.2,74.3,29.00,SW,225,0.0,0.0,85,0.00,,,0.00,WeatherDisplay:WD_co,2015-09-03 22:35:00,
2015-09-04 01:40:00,79.3,74.8,29.00,SW,225,0.0,0.0,86,0.00,,,0.00,WeatherDisplay:WD_co,2015-09-03 22:40:00,
2015-09-04 01:45:00,79.3,74.8,29.00,WSW,238,0.0,0.0,86,0.00,,,0.00,WeatherDisplay:WD_co,2015-09-03 22:45:00,
2015-09-04 01:55:00,79.3,75.1,29.00,West,270,0.0,0.0,87,0.00,,,0.00,WeatherDisplay:WD_co,2015-09-03 22:55:00,
2015-09-04 02:00:00,79.3,75.5,29.00,West,270,0.0,0.0,88,0.00,,,0.00,WeatherDisplay:WD_co,2015-09-03 23:00:00,
2015-09-04 02:05:00,79.2,75.3,29.00,West,270,0.0,0.0,88,0.00,,,0.00,WeatherDisplay:WD_co,2015-09-03 23:05:00,
2015-09-04 02:10:00,79.0,75.1,28.99,West,270,0.0,0.0,88,0.00,,,0.00,WeatherDisplay:WD_co,2015-09-03 23:10:00,
2015-09-04 02:15:00,79.2,75.3,29.00,West,270,0.0,0.0,88,0.00,,,0.00,WeatherDisplay:WD_co,2015-09-03 23:15:00,
2015-09-04 02:20:00,79.2,75.3,29.00,West,270,0.0,0.0,88,0.00,,,0.00,WeatherDisplay:WD_co,2015-09-03 23:20:00,
2015-09-04 02:25:00,79.3,75.8,29.00,WSW,257,0.0,0.0,89,0.00,,,0.00,WeatherDisplay:WD_co,2015-09-03 23:25:00,
2015-09-04 02:30:00,79.3,75.5,29.00,SW,234,0.0,0.0,88,0.00,,,0.00,WeatherDisplay:WD_co,2015-09-03 23:30:00,
2015-09-04 02:35:00,79.3,75.5,29.00,SE,135,0.0,0.0,88,0.00,,,0.00,WeatherDisplay:WD_co,2015-09-03 23:35:00,
2015-09-04 02:40:00,79.5,75.7,29.00,NE,45,0.0,0.0,88,0.00,,,0.00,WeatherDisplay:WD_co,2015-09-03 23:40:00,
2015-09-04 02:45:00,79.5,75.7,29.00,NE,45,0.0,0.0,88,0.00,,,0.00,WeatherDisplay:WD_co,2015-09-03 23:45:00,
2015-09-04 02:50:00,79.5,75.7,29.00,NE,45,0.0,0.0,88,0.00,,,0.00,WeatherDisplay:WD_co,2015-09-03 23:50:00,
2015-09-04 02:55:00,79.7,75.5,29.00,NE,45,0.0,0.0,87,0.00,,,0.00,WeatherDisplay:WD_co,2015-09-03 23:55:00,
2015-09-04 03:00:00,79.7,75.5,28.99,NE,45,0.0,0.0,87,0.00,,,0.00,WeatherDisplay:WD_co,2015-09-04 00:00:00,
2015-09-04 03:05:00,79.7,75.1,28.99,NE,45,0.0,0.0,86,0.00,,,0.00,WeatherDisplay:WD_co,2015-09-04 00:05:00,
2015-09-04 03:10:00,79.7,75.1,28.99,NE,45,0.0,0.0,86,0.00,,,0.00,WeatherDisplay:WD_co,2015-09-04 00:10:00,
2015-09-04 03:15:00,79.7,75.1,29.00,NE,45,0.0,0.0,86,0.00,,,0.00,WeatherDisplay:WD_co,2015-09-04 00:15:00,
2015-09-04 03:20:00,79.7,75.1,28.99,NE,45,0.0,0.0,86,0.00,,,0.00,WeatherDisplay:WD_co,2015-09-04 00:20:00,
2015-09-04 03:25:00,79.7,74.8,29.00,NE,45,0.0,2.0,85,0.00,,,0.00,WeatherDisplay:WD_co,2015-09-04 00:25:00,
2015-09-04 03:30:00,79.7,74.8,28.99,NE,49,0.0,2.0,85,0.00,,,0.00,WeatherDisplay:WD_co,2015-09-04 00:30:00,
2015-09-04 03:35:00,79.5,74.6,28.99,ENE,58,0.0,2.0,85,0.00,,,0.00,WeatherDisplay:WD_co,2015-09-04 00:35:00,
2015-09-04 03:40:00,79.5,74.6,28.99,NE,49,0.0,2.0,85,0.00,,,0.00,WeatherDisplay:WD_co,2015-09-04 00:40:00,
2015-09-04 03:45:00,79.2,74.3,28.99,NE,49,0.0,0.0,85,0.00,,,0.00,WeatherDisplay:WD_co,2015-09-04 00:45:00,
2015-09-04 03:50:00,79.2,74.3,28.99,NE,45,0.0,0.0,85,0.00,,,0.00,WeatherDisplay:WD_co,2015-09-04 00:50:00,
2015-09-04 03:55:00,79.2,74.3,28.99,NE,49,1.0,2.0,85,0.00,,,0.00,WeatherDisplay:WD_co,2015-09-04 00:55:00,
2015-09-04 04:00:00,79.0,74.1,28.99,NE,54,0.0,2.0,85,0.00,,,0.00,WeatherDisplay:WD_co,2015-09-04 01:00:00,
2015-09-04 04:05:00,78.8,73.9,28.99,NE,49,0.0,0.0,85,0.00,,,0.00,WeatherDisplay:WD_co,2015-09-04 01:05:00,
2015-09-04 04:10:00,78.8,73.9,28.99,NE,45,0.0,0.0,85,0.00,,,0.00,WeatherDisplay:WD_co,2015-09-04 01:10:00,
2015-09-04 04:15:00,78.8,73.9,28.99,NE,37,1.0,3.0,85,0.00,,,0.00,WeatherDisplay:WD_co,2015-09-04 01:15:00,
2015-09-04 04:20:00,78.8,73.9,28.99,NE,48,0.0,2.0,85,0.00,,,0.00,WeatherDisplay:WD_co,2015-09-04 01:20:00,
2015-09-04 04:25:00,78.6,73.7,28.99,NE,50,0.0,0.0,85,0.00,,,0.00,WeatherDisplay:WD_co,2015-09-04 01:25:00,
2015-09-04 04:30:00,78.6,73.7,28.99,NE,45,1.0,3.0,85,0.00,,,0.00,WeatherDisplay:WD_co,2015-09-04 01:30:00,
2015-09-04 04:35:00,78.4,73.6,28.99,ENE,72,0.0,2.0,85,0.00,,,0.00,WeatherDisplay:WD_co,2015-09-04 01:35:00,
2015-09-04 04:40:00,78.3,73.4,28.99,ENE,63,1.0,2.0,85,0.00,,,0.00,WeatherDisplay:WD_co,2015-09-04 01:40:00,
2015-09-04 04:45:00,78.3,73.4,28.99,NE,54,1.0,2.0,85,0.00,,,0.00,WeatherDisplay:WD_co,2015-09-04 01:45:00,
2015-09-04 04:50:00,78.1,73.2,28.99,NE,37,0.0,2.0,85,0.00,,,0.00,WeatherDisplay:WD_co,2015-09-04 01:50:00,
2015-09-04 04:55:00,78.1,73.2,28.99,NE,43,0.0,2.0,85,0.00,,,0.00,WeatherDisplay:WD_co,2015-09-04 01:55:00,
2015-09-04 05:05:00,77.9,73.0,28.99,East,83,0.0,0.0,85,0.00,,,0.00,WeatherDisplay:WD_co,2015-09-04 02:05:00,
2015-09-04 05:10:00,77.9,73.4,28.99,ENE,72,1.0,3.0,86,0.00,,,0.00,WeatherDisplay:WD_co,2015-09-04 02:10:00,
2015-09-04 05:15:00,77.7,73.2,28.98,NE,43,0.0,2.0,86,0.00,,,0.00,WeatherDisplay:WD_co,2015-09-04 02:15:00,
2015-09-04 05:20:00,77.7,73.2,28.99,NE,39,0.0,0.0,86,0.00,,,0.00,WeatherDisplay:WD_co,2015-09-04 02:20:00,
2015-09-04 05:25:00,77.7,73.2,28.98,NE,45,0.0,0.0,86,0.00,,,0.00,WeatherDisplay:WD_co,2015-09-04 02:25:00,
2015-09-04 05:30:00,77.7,73.2,28.99,NE,49,1.0,2.0,86,0.00,,,0.00,WeatherDisplay:WD_co,2015-09-04 02:30:00,
2015-09-04 05:35:00,77.7,73.2,28.99,ENE,61,0.0,2.0,86,0.00,,,0.00,WeatherDisplay:WD_co,2015-09-04 02:35:00,
2015-09-04 05:40:00,77.7,73.2,28.99,NE,42,0.0,2.0,86,0.00,,,0.00,WeatherDisplay:WD_co,2015-09-04 02:40:00,
2015-09-04 05:45:00,77.5,73.0,29.00,NE,35,0.0,3.0,86,0.00,,,0.00,WeatherDisplay:WD_co,2015-09-04 02:45:00,
2015-09-04 05:50:00,77.5,73.0,28.99,NE,39,0.0,2.0,86,0.00,,,0.00,WeatherDisplay:WD_co,2015-09-04 02:50:00,
2015-09-04 05:55:00,77.5,73.0,28.99,NE,45,0.0,0.0,86,0.00,,,0.00,WeatherDisplay:WD_co,2015-09-04 02:55:00,
2015-09-04 06:00:00,77.5,73.0,28.98,NE,45,0.0,0.0,86,0.00,,,0.00,WeatherDisplay:WD_co,2015-09-04 03:00:00,
2015-09-04 06:05:00,77.5,73.0,28.99,NE,53,0.0,2.0,86,0.00,,,0.00,WeatherDisplay:WD_co,2015-09-04 03:05:00,
2015-09-04 06:10:00,77.4,73.2,28.99,ENE,59,0.0,0.0,87,0.00,,,0.00,WeatherDisplay:WD_co,2015-09-04 03:10:00,
2015-09-04 06:15:00,77.4,73.2,28.99,NE,51,0.0,0.0,87,0.00,,,0.00,WeatherDisplay:WD_co,2015-09-04 03:15:00,
2015-09-04 06:20:00,77.4,73.2,28.99,NE,45,0.0,0.0,87,0.00,,,0.00,WeatherDisplay:WD_co,2015-09-04 03:20:00,
2015-09-04 06:25:00,77.4,73.2,28.99,NE,45,0.0,0.0,87,0.00,,,0.00,WeatherDisplay:WD_co,2015-09-04 03:25:00,
2015-09-04 06:30:00,77.4,73.2,28.99,ENE,74,1.0,2.0,87,0.00,,,0.00,WeatherDisplay:WD_co,2015-09-04 03:30:00,
2015-09-04 06:35:00,77.2,73.0,28.99,ENE,64,0.0,2.0,87,0.00,,,0.00,WeatherDisplay:WD_co,2015-09-04 03:35:00,
2015-09-04 06:40:00,77.2,73.0,28.99,NE,54,0.0,3.0,87,0.00,,,0.00,WeatherDisplay:WD_co,2015-09-04 03:40:00,
2015-09-04 06:45:00,77.2,73.0,28.99,NE,41,0.0,1.0,87,0.00,,,0.00,WeatherDisplay:WD_co,2015-09-04 03:45:00,
2015-09-04 06:50:00,77.2,73.0,28.99,NNE,15,0.0,2.0,87,0.00,,,0.00,WeatherDisplay:WD_co,2015-09-04 03:50:00,
2015-09-04 06:55:00,77.0,72.8,28.99,NNE,22,0.0,2.0,87,0.00,,,0.00,WeatherDisplay:WD_co,2015-09-04 03:55:00,
2015-09-04 07:00:00,77.0,72.8,28.99,NE,36,1.0,3.0,87,0.00,,,0.00,WeatherDisplay:WD_co,2015-09-04 04:00:00,
2015-09-04 07:05:00,77.0,72.8,28.99,NE,54,0.0,2.0,87,0.00,,,0.00,WeatherDisplay:WD_co,2015-09-04 04:05:00,
2015-09-04 07:10:00,77.0,73.2,28.99,ENE,63,0.0,2.0,88,0.00,,,0.00,WeatherDisplay:WD_co,2015-09-04 04:10:00,
2015-09-04 07:15:00,77.0,73.2,29.00,ENE,58,1.0,3.0,88,0.00,,,0.00,WeatherDisplay:WD_co,2015-09-04 04:15:00,
2015-09-04 07:20:00,77.0,73.2,29.00,ENE,60,0.0,2.0,88,0.00,,,0.00,WeatherDisplay:WD_co,2015-09-04 04:20:00,
2015-09-04 07:25:00,77.0,73.2,29.00,NE,40,1.0,3.0,88,0.00,,,0.00,WeatherDisplay:WD_co,2015-09-04 04:25:00,
2015-09-04 07:30:00,77.0,73.2,29.01,NE,36,0.0,3.0,88,0.00,,,0.00,WeatherDisplay:WD_co,2015-09-04 04:30:00,
2015-09-04 07:35:00,77.0,73.2,29.00,NE,50,0.0,2.0,88,0.00,,,0.00,WeatherDisplay:WD_co,2015-09-04 04:35:00,
2015-09-04 07:40:00,77.2,73.3,29.01,ENE,68,0.0,2.0,88,0.00,,,0.00,WeatherDisplay:WD_co,2015-09-04 04:40:00,
2015-09-04 07:45:00,77.4,73.5,29.01,NE,50,1.0,2.0,88,0.00,,,0.00,WeatherDisplay:WD_co,2015-09-04 04:45:00,
2015-09-04 07:50:00,77.5,73.7,29.01,NE,52,0.0,2.0,88,0.00,,,0.00,WeatherDisplay:WD_co,2015-09-04 04:50:00,
2015-09-04 07:55:00,77.7,73.5,29.01,NE,56,0.0,0.0,87,0.00,,,0.00,WeatherDisplay:WD_co,2015-09-04 04:55:00,
2015-09-04 08:00:00,77.9,73.7,29.01,NE,45,0.0,0.0,87,0.00,,,0.00,WeatherDisplay:WD_co,2015-09-04 05:00:00,
2015-09-04 08:05:00,78.1,73.9,29.01,NNW,340,0.0,0.0,87,0.00,,,0.00,WeatherDisplay:WD_co,2015-09-04 05:05:00,